Time;durP1;ratioP1;P1;durP2;ratioP2;P2;SDS_P1;SDS_P2;PMS_P1;PMS_P2;Temp;Humidity;BMP_temperature;BMP_pressure;BME280_temperature;BME280_humidity;BME280_pressure;Samples;Min_cycle;Max_cycle;Signal;HPM_P1;HPM_P2
2023/06/10 00:00:12;;;;;;;4.77;3.10;;;;;;;;;;5118602;27;20211;-66
2023/06/10 00:02:40;;;;;;;4.20;2.97;;;;;;;;;;5118580;28;20214;-65
2023/06/10 00:05:10;;;;;;;3.27;2.53;;;;;;;;;;5118803;28;20229;-66
2023/06/10 00:07:40;;;;;;;5.50;2.73;;;;;;;;;;5118763;28;20209;-67
2023/06/10 00:10:10;;;;;;;3.47;2.47;;;;;;;;;;5118398;28;20570;-66
2023/06/10 00:12:40;;;;;;;4.13;3.10;;;;;;;;;;5118651;28;20245;-66
2023/06/10 00:15:08;;;;;;;6.33;3.17;;;;;;;;;;5118270;28;20232;-66
2023/06/10 00:17:38;;;;;;;3.20;2.90;;;;;;;;;;5118717;28;20222;-66
2023/06/10 00:20:09;;;;;;;2.63;2.37;;;;;;;;;;5118648;28;20216;-66
2023/06/10 00:22:41;;;;;;;2.60;2.40;;;;;;;;;;5118470;28;20205;-66
2023/06/10 00:25:10;;;;;;;4.90;2.30;;;;;;;;;;5118289;28;20232;-66
2023/06/10 00:27:39;;;;;;;5.60;3.17;;;;;;;;;;5118274;28;20226;-65
2023/06/10 00:30:08;;;;;;;4.40;2.33;;;;;;;;;;5118071;28;20205;-65
2023/06/10 00:32:36;;;;;;;3.33;2.50;;;;;;;;;;5118418;28;20216;-66
2023/06/10 00:35:05;;;;;;;4.90;2.33;;;;;;;;;;5118028;28;20574;-66
2023/06/10 00:37:35;;;;;;;2.40;2.20;;;;;;;;;;5116987;28;20247;-66
2023/06/10 00:40:06;;;;;;;3.10;2.80;;;;;;;;;;5114328;28;20292;-66
2023/06/10 00:42:34;;;;;;;3.27;2.30;;;;;;;;;;5118084;28;20209;-66
2023/06/10 00:45:03;;;;;;;3.07;2.47;;;;;;;;;;5118164;28;20209;-66
2023/06/10 00:47:31;;;;;;;3.37;2.90;;;;;;;;;;5118590;28;20212;-66
2023/06/10 00:49:59;;;;;;;4.73;2.40;;;;;;;;;;5118015;28;20603;-66
2023/06/10 00:52:29;;;;;;;3.73;2.50;;;;;;;;;;5118113;28;20206;-66
2023/06/10 00:54:58;;;;;;;3.30;2.20;;;;;;;;;;5117625;28;20209;-65
2023/06/10 00:57:29;;;;;;;4.37;2.80;;;;;;;;;;5118100;28;20258;-66
2023/06/10 00:59:58;;;;;;;8.00;2.77;;;;;;;;;;5105114;28;20289;-65
2023/06/10 01:02:26;;;;;;;4.20;2.73;;;;;;;;;;5118064;28;20246;-66
2023/06/10 01:04:54;;;;;;;4.10;2.80;;;;;;;;;;5117762;28;20201;-65
2023/06/10 01:07:25;;;;;;;5.17;3.00;;;;;;;;;;5117765;28;20292;-65
2023/06/10 01:09:57;;;;;;;5.00;3.43;;;;;;;;;;5121190;28;20216;-66
2023/06/10 01:12:32;;;;;;;6.23;3.23;;;;;;;;;;5121742;28;20201;-66
2023/06/10 01:15:03;;;;;;;4.80;3.23;;;;;;;;;;5121747;28;20565;-65
2023/06/10 01:17:31;;;;;;;4.30;3.00;;;;;;;;;;5121852;28;20226;-66
2023/06/10 01:19:59;;;;;;;3.87;3.20;;;;;;;;;;5121955;28;20218;-66
2023/06/10 01:22:32;;;;;;;5.00;3.37;;;;;;;;;;5121743;28;20240;-65
2023/06/10 01:25:03;;;;;;;4.47;3.40;;;;;;;;;;5121328;28;20213;-66
2023/06/10 01:27:34;;;;;;;6.10;3.67;;;;;;;;;;5121508;28;20634;-66
2023/06/10 01:30:06;;;;;;;5.87;4.30;;;;;;;;;;5121340;28;20211;-66
2023/06/10 01:32:35;;;;;;;5.57;4.30;;;;;;;;;;5121428;28;20235;-66
2023/06/10 01:35:06;;;;;;;8.47;4.17;;;;;;;;;;5121548;28;20270;-66
2023/06/10 01:37:37;;;;;;;5.53;4.00;;;;;;;;;;5121241;28;20232;-66
2023/06/10 01:40:06;;;;;;;6.23;4.20;;;;;;;;;;5116802;27;20215;-66
2023/06/10 01:42:34;;;;;;;6.77;4.50;;;;;;;;;;5114500;28;20650;-66
2023/06/10 01:45:02;;;;;;;6.57;4.40;;;;;;;;;;5108113;28;20207;-66
2023/06/10 01:47:31;;;;;;;5.00;4.33;;;;;;;;;;5121150;27;20633;-66
2023/06/10 01:49:59;;;;;;;5.10;4.60;;;;;;;;;;5121422;28;20213;-66
2023/06/10 01:52:27;;;;;;;8.70;4.37;;;;;;;;;;5120908;28;20332;-67
2023/06/10 01:54:57;;;;;;;5.87;4.40;;;;;;;;;;5121142;28;20208;-66
2023/06/10 01:57:25;;;;;;;5.00;3.67;;;;;;;;;;5121152;28;20232;-66
2023/06/10 01:59:53;;;;;;;6.67;4.40;;;;;;;;;;5121269;28;20294;-66
2023/06/10 02:02:22;;;;;;;7.60;4.53;;;;;;;;;;5120830;28;20246;-66
2023/06/10 02:04:50;;;;;;;6.87;4.33;;;;;;;;;;5120816;28;20641;-66
2023/06/10 02:07:18;;;;;;;6.50;3.50;;;;;;;;;;5120691;28;20696;-66
2023/06/10 02:09:47;;;;;;;7.13;4.33;;;;;;;;;;5120469;28;20329;-65
2023/06/10 02:12:16;;;;;;;5.40;3.37;;;;;;;;;;5120956;28;20214;-66
2023/06/10 02:14:45;;;;;;;4.27;3.60;;;;;;;;;;5121024;28;20206;-66
2023/06/10 02:17:14;;;;;;;2.53;2.33;;;;;;;;;;5120667;28;20230;-66
2023/06/10 02:19:43;;;;;;;3.20;2.40;;;;;;;;;;5119376;28;20232;-66
2023/06/10 02:22:11;;;;;;;3.80;2.23;;;;;;;;;;5120722;28;20208;-66
2023/06/10 02:24:39;;;;;;;3.00;2.07;;;;;;;;;;5120075;28;20240;-65
2023/06/10 02:27:07;;;;;;;2.70;2.07;;;;;;;;;;5120704;28;20313;-65
2023/06/10 02:29:37;;;;;;;5.17;2.50;;;;;;;;;;5120496;28;20642;-65
2023/06/10 02:32:06;;;;;;;3.97;2.33;;;;;;;;;;5120268;28;20666;-65
2023/06/10 02:34:38;;;;;;;2.00;1.87;;;;;;;;;;5120535;28;20239;-66
2023/06/10 02:37:06;;;;;;;4.67;2.30;;;;;;;;;;5120071;28;20229;-66
2023/06/10 02:39:34;;;;;;;2.40;2.13;;;;;;;;;;5117100;28;20239;-66
2023/06/10 02:42:02;;;;;;;3.43;2.07;;;;;;;;;;5120016;28;20244;-65
2023/06/10 02:44:30;;;;;;;2.90;2.17;;;;;;;;;;5120090;28;20206;-65
2023/06/10 02:47:00;;;;;;;4.20;2.37;;;;;;;;;;5120251;28;20238;-65
2023/06/10 02:49:28;;;;;;;2.50;2.00;;;;;;;;;;5120161;28;20202;-66
2023/06/10 02:51:56;;;;;;;2.87;2.23;;;;;;;;;;5120269;28;20206;-66
2023/06/10 02:54:25;;;;;;;2.10;2.00;;;;;;;;;;5119430;28;20691;-66
2023/06/10 02:56:55;;;;;;;3.17;2.27;;;;;;;;;;5121726;27;20220;-66
2023/06/10 02:59:23;;;;;;;3.60;2.33;;;;;;;;;;5122673;27;20211;-71
2023/06/10 03:01:52;;;;;;;3.33;2.40;;;;;;;;;;5119533;28;20206;-66
2023/06/10 03:04:23;;;;;;;4.23;2.40;;;;;;;;;;5120652;27;20239;-66
2023/06/10 03:06:51;;;;;;;4.30;2.40;;;;;;;;;;5121451;27;20218;-66
2023/06/10 03:09:19;;;;;;;7.70;2.50;;;;;;;;;;5118731;28;20665;-66
2023/06/10 03:11:48;;;;;;;2.67;2.07;;;;;;;;;;5119485;28;20211;-67
2023/06/10 03:14:16;;;;;;;4.30;2.50;;;;;;;;;;5119814;28;20210;-66
2023/06/10 03:16:45;;;;;;;3.30;2.03;;;;;;;;;;5119376;28;20227;-66
2023/06/10 03:19:13;;;;;;;4.73;2.30;;;;;;;;;;5118303;28;20699;-66
2023/06/10 03:21:45;;;;;;;3.40;2.10;;;;;;;;;;5116570;28;20202;-66
2023/06/10 03:24:13;;;;;;;2.57;2.20;;;;;;;;;;5116999;28;20564;-66
2023/06/10 03:26:42;;;;;;;4.07;2.60;;;;;;;;;;5116629;28;20277;-65
2023/06/10 03:29:12;;;;;;;5.70;2.33;;;;;;;;;;5119055;27;20289;-66
2023/06/10 03:31:50;;;;;;;3.03;2.23;;;;;;;;;;5118151;27;20645;-66
2023/06/10 03:34:21;;;;;;;2.47;2.13;;;;;;;;;;5119000;28;20678;-66
2023/06/10 03:36:50;;;;;;;3.37;2.63;;;;;;;;;;5118139;27;20218;-65
2023/06/10 03:39:18;;;;;;;2.87;2.10;;;;;;;;;;5120013;27;20231;-66
2023/06/10 03:41:47;;;;;;;4.03;2.17;;;;;;;;;;5118060;27;20211;-66
2023/06/10 03:44:15;;;;;;;3.57;2.13;;;;;;;;;;5118638;28;20284;-66
2023/06/10 03:46:43;;;;;;;3.23;2.30;;;;;;;;;;5117982;28;20234;-66
2023/06/10 03:49:11;;;;;;;1.97;1.87;;;;;;;;;;5118744;28;20685;-66
2023/06/10 03:51:39;;;;;;;3.93;2.70;;;;;;;;;;5118857;28;20680;-65
2023/06/10 03:54:09;;;;;;;2.47;2.27;;;;;;;;;;5118284;28;20245;-66
2023/06/10 03:56:37;;;;;;;5.37;2.50;;;;;;;;;;5118986;28;20234;-64
2023/06/10 03:59:05;;;;;;;2.87;2.33;;;;;;;;;;5118588;28;20313;-64
2023/06/10 04:01:35;;;;;;;3.37;2.53;;;;;;;;;;5118941;28;20211;-65
2023/06/10 04:04:03;;;;;;;7.27;2.70;;;;;;;;;;5118580;28;20683;-65
2023/06/10 04:06:31;;;;;;;5.13;2.40;;;;;;;;;;5118926;28;20228;-66
2023/06/10 04:08:59;;;;;;;3.23;2.47;;;;;;;;;;5118279;28;20284;-64
2023/06/10 04:11:29;;;;;;;3.10;2.57;;;;;;;;;;5118493;28;20205;-65
2023/06/10 04:13:57;;;;;;;4.00;3.13;;;;;;;;;;5118670;28;20241;-64
2023/06/10 04:16:25;;;;;;;3.17;2.67;;;;;;;;;;5118327;28;20561;-64
2023/06/10 04:18:54;;;;;;;3.90;2.80;;;;;;;;;;5118484;28;20313;-66
2023/06/10 04:21:22;;;;;;;4.10;2.67;;;;;;;;;;5118736;28;20209;-65
2023/06/10 04:23:50;;;;;;;3.07;2.87;;;;;;;;;;5117911;28;20199;-66
2023/06/10 04:26:19;;;;;;;4.77;2.73;;;;;;;;;;5118217;28;20229;-65
2023/06/10 04:28:48;;;;;;;5.27;3.60;;;;;;;;;;5104791;28;20215;-66
2023/06/10 04:31:16;;;;;;;3.70;3.20;;;;;;;;;;5118178;28;20549;-66
2023/06/10 04:33:45;;;;;;;4.63;3.27;;;;;;;;;;5118283;28;20254;-65
2023/06/10 04:36:14;;;;;;;9.47;3.87;;;;;;;;;;5118201;28;20245;-66
2023/06/10 04:38:42;;;;;;;8.30;4.00;;;;;;;;;;5118183;28;20226;-65
2023/06/10 04:41:10;;;;;;;8.20;4.70;;;;;;;;;;5114527;28;20214;-66
2023/06/10 04:43:39;;;;;;;6.53;4.50;;;;;;;;;;5119930;28;20206;-66
2023/06/10 04:46:08;;;;;;;4.90;4.37;;;;;;;;;;5122333;28;20291;-66
2023/06/10 04:48:37;;;;;;;9.57;6.07;;;;;;;;;;5122732;28;20214;-65
2023/06/10 04:51:05;;;;;;;9.47;5.77;;;;;;;;;;5122218;28;20662;-65
2023/06/10 04:53:33;;;;;;;8.90;6.10;;;;;;;;;;5121761;28;20260;-66
2023/06/10 04:56:01;;;;;;;8.43;6.67;;;;;;;;;;5122170;28;20226;-65
2023/06/10 04:58:30;;;;;;;7.77;6.90;;;;;;;;;;5122125;28;20233;-65
2023/06/10 05:00:58;;;;;;;10.87;7.60;;;;;;;;;;5122269;28;20207;-66
2023/06/10 05:03:27;;;;;;;11.07;8.07;;;;;;;;;;5121342;28;20228;-66
2023/06/10 05:05:58;;;;;;;10.10;8.37;;;;;;;;;;5121298;28;20719;-66
2023/06/10 05:08:26;;;;;;;9.10;7.13;;;;;;;;;;5121597;28;20215;-65
2023/06/10 05:10:54;;;;;;;9.20;7.23;;;;;;;;;;5121782;28;20683;-65
2023/06/10 05:13:22;;;;;;;7.23;5.97;;;;;;;;;;5122232;28;20203;-66
2023/06/10 05:15:50;;;;;;;12.40;5.87;;;;;;;;;;5121807;28;20324;-66
2023/06/10 05:18:18;;;;;;;6.30;5.43;;;;;;;;;;5121609;28;20262;-66
2023/06/10 05:20:49;;;;;;;7.73;6.23;;;;;;;;;;5121735;28;20278;-65
2023/06/10 05:23:17;;;;;;;6.87;6.17;;;;;;;;;;5121254;28;20720;-66
2023/06/10 05:25:45;;;;;;;11.03;7.13;;;;;;;;;;5121161;28;20261;-66
2023/06/10 05:28:13;;;;;;;8.17;7.07;;;;;;;;;;5121615;28;20284;-64
2023/06/10 05:30:42;;;;;;;11.67;8.17;;;;;;;;;;5121415;28;20208;-65
2023/06/10 05:33:10;;;;;;;10.60;9.23;;;;;;;;;;5121472;28;20206;-66
2023/06/10 05:35:39;;;;;;;10.27;8.73;;;;;;;;;;5121290;27;20306;-66
2023/06/10 05:38:09;;;;;;;11.13;8.33;;;;;;;;;;5120884;28;20544;-66
2023/06/10 05:40:37;;;;;;;9.50;8.20;;;;;;;;;;5117803;28;20231;-66
2023/06/10 05:43:05;;;;;;;13.67;9.47;;;;;;;;;;5118616;28;20727;-66
2023/06/10 05:45:33;;;;;;;9.43;8.53;;;;;;;;;;5104040;28;20231;-76
2023/06/10 05:48:01;;;;;;;11.93;8.43;;;;;;;;;;5120055;28;20211;-76
2023/06/10 05:50:29;;;;;;;7.93;7.13;;;;;;;;;;5122154;27;20193;-76
2023/06/10 05:52:58;;;;;;;9.27;6.67;;;;;;;;;;5121718;27;20701;-75
2023/06/10 05:55:27;;;;;;;7.57;6.23;;;;;;;;;;5117874;28;20219;-76
2023/06/10 05:58:02;;;;;;;7.30;6.60;;;;;;;;;;5120777;28;20197;-73
2023/06/10 06:00:30;;;;;;;8.47;6.87;;;;;;;;;;5116127;27;20612;-76
2023/06/10 06:02:58;;;;;;;7.87;7.00;;;;;;;;;;5120280;28;20285;-76
2023/06/10 06:05:27;;;;;;;8.23;7.20;;;;;;;;;;5120738;27;20676;-76
2023/06/10 06:07:55;;;;;;;8.20;7.13;;;;;;;;;;5115614;28;20200;-76
2023/06/10 06:10:24;;;;;;;9.93;7.20;;;;;;;;;;5121832;27;20206;-76
2023/06/10 06:12:53;;;;;;;7.93;6.80;;;;;;;;;;5122501;27;20198;-76
2023/06/10 06:15:22;;;;;;;8.33;6.43;;;;;;;;;;5120347;27;20330;-76
2023/06/10 06:17:52;;;;;;;9.27;7.37;;;;;;;;;;5120738;28;20199;-75
2023/06/10 06:20:21;;;;;;;8.93;7.47;;;;;;;;;;5120774;27;20214;-75
2023/06/10 06:22:49;;;;;;;10.93;8.57;;;;;;;;;;5120287;27;20285;-75
2023/06/10 06:25:18;;;;;;;10.00;7.87;;;;;;;;;;5120988;27;20222;-74
2023/06/10 06:27:46;;;;;;;10.60;7.23;;;;;;;;;;5119569;28;20204;-76
2023/06/10 06:30:16;;;;;;;11.47;8.13;;;;;;;;;;5120399;28;20206;-76
2023/06/10 06:32:45;;;;;;;9.20;8.00;;;;;;;;;;5119933;28;20282;-76
2023/06/10 06:35:13;;;;;;;10.93;7.83;;;;;;;;;;5120588;27;20220;-76
2023/06/10 06:37:41;;;;;;;10.13;8.33;;;;;;;;;;5118108;27;20202;-77
2023/06/10 06:40:13;;;;;;;11.63;8.90;;;;;;;;;;5121631;28;20238;-77
2023/06/10 06:42:47;;;;;;;10.10;8.97;;;;;;;;;;5125009;28;20209;-76
2023/06/10 06:45:20;;;;;;;10.20;9.20;;;;;;;;;;5126556;28;20217;-76
2023/06/10 06:47:51;;;;;;;10.53;8.80;;;;;;;;;;5126451;28;20264;-74
2023/06/10 06:50:21;;;;;;;13.20;8.73;;;;;;;;;;5124800;28;20664;-76
2023/06/10 06:52:53;;;;;;;10.33;8.27;;;;;;;;;;5124199;28;20250;-76
2023/06/10 06:55:23;;;;;;;9.10;7.97;;;;;;;;;;5123284;27;20226;-76
2023/06/10 06:57:52;;;;;;;12.53;8.97;;;;;;;;;;5144610;27;20281;-76
2023/06/10 07:00:22;;;;;;;11.00;8.97;;;;;;;;;;5137277;27;20631;-76
2023/06/10 07:02:50;;;;;;;11.03;9.17;;;;;;;;;;5119664;28;20236;-77
2023/06/10 07:05:18;;;;;;;10.43;9.40;;;;;;;;;;5119769;28;20239;-77
2023/06/10 07:07:47;;;;;;;10.67;9.57;;;;;;;;;;5119012;28;20660;-77
2023/06/10 07:10:15;;;;;;;9.80;8.87;;;;;;;;;;5119500;28;20579;-75
2023/06/10 07:12:43;;;;;;;9.93;8.93;;;;;;;;;;5119516;28;20622;-76
2023/06/10 07:15:11;;;;;;;10.87;9.40;;;;;;;;;;5119740;28;20229;-75
2023/06/10 07:17:41;;;;;;;10.43;9.30;;;;;;;;;;5118817;28;20297;-72
2023/06/10 07:20:10;;;;;;;11.20;10.00;;;;;;;;;;5119678;28;20225;-71
2023/06/10 07:22:39;;;;;;;10.40;9.30;;;;;;;;;;5105748;28;20642;-72
2023/06/10 07:25:08;;;;;;;12.50;10.20;;;;;;;;;;5119241;28;20201;-71
2023/06/10 07:27:37;;;;;;;13.73;9.80;;;;;;;;;;5119414;28;20237;-71
2023/06/10 07:30:06;;;;;;;11.07;10.07;;;;;;;;;;5119143;28;20265;-72
2023/06/10 07:32:35;;;;;;;10.87;8.90;;;;;;;;;;5119184;28;20210;-71
2023/06/10 07:35:05;;;;;;;13.53;8.40;;;;;;;;;;5119194;28;20216;-71
2023/06/10 07:37:33;;;;;;;10.33;7.63;;;;;;;;;;5119104;28;20206;-71
2023/06/10 07:40:01;;;;;;;10.50;8.07;;;;;;;;;;5118776;28;20621;-72
2023/06/10 07:42:29;;;;;;;8.37;7.47;;;;;;;;;;5118970;28;20207;-72
2023/06/10 07:44:58;;;;;;;11.37;8.23;;;;;;;;;;5118991;28;20228;-69
2023/06/10 07:47:26;;;;;;;11.23;8.20;;;;;;;;;;5119213;28;20207;-72
2023/06/10 07:49:54;;;;;;;10.27;8.40;;;;;;;;;;5118783;28;20210;-72
2023/06/10 07:52:24;;;;;;;9.10;7.63;;;;;;;;;;5118421;28;20216;-69
2023/06/10 07:54:52;;;;;;;8.33;7.30;;;;;;;;;;5118562;28;20659;-69
2023/06/10 07:57:20;;;;;;;8.40;7.60;;;;;;;;;;5118652;27;20673;-68
2023/06/10 07:59:48;;;;;;;10.60;7.53;;;;;;;;;;5118769;28;20236;-69
2023/06/10 08:02:17;;;;;;;11.10;7.93;;;;;;;;;;5118278;28;20658;-68
2023/06/10 08:04:45;;;;;;;9.30;8.07;;;;;;;;;;5118579;28;20239;-69
2023/06/10 08:07:13;;;;;;;9.87;8.83;;;;;;;;;;5118160;28;20273;-69
2023/06/10 08:09:43;;;;;;;10.63;8.10;;;;;;;;;;5118613;28;20296;-69
2023/06/10 08:12:11;;;;;;;8.60;7.80;;;;;;;;;;5118346;28;20205;-70
2023/06/10 08:14:39;;;;;;;8.90;7.97;;;;;;;;;;5118304;28;20212;-70
2023/06/10 08:17:07;;;;;;;10.67;8.70;;;;;;;;;;5118394;28;20224;-70
2023/06/10 08:19:35;;;;;;;14.43;8.20;;;;;;;;;;5118556;28;20216;-69
2023/06/10 08:22:04;;;;;;;10.43;8.13;;;;;;;;;;5118094;28;20317;-69
2023/06/10 08:24:32;;;;;;;8.70;7.80;;;;;;;;;;5117790;28;20680;-69
2023/06/10 08:27:01;;;;;;;8.67;7.70;;;;;;;;;;5118020;28;20237;-69
2023/06/10 08:29:31;;;;;;;9.60;8.33;;;;;;;;;;5118483;28;20211;-69
2023/06/10 08:31:59;;;;;;;11.17;7.77;;;;;;;;;;5118509;28;20199;-70
2023/06/10 08:34:27;;;;;;;10.07;7.43;;;;;;;;;;5118112;28;20206;-69
2023/06/10 08:36:55;;;;;;;8.53;7.53;;;;;;;;;;5118179;28;20220;-69
2023/06/10 08:39:23;;;;;;;7.90;7.20;;;;;;;;;;5117648;28;20209;-68
2023/06/10 08:41:59;;;;;;;8.13;7.17;;;;;;;;;;5118067;28;20236;-69
2023/06/10 08:44:37;;;;;;;8.43;6.83;;;;;;;;;;5118218;28;20572;-71
2023/06/10 08:47:09;;;;;;;8.03;7.23;;;;;;;;;;5117187;28;20227;-70
2023/06/10 08:49:39;;;;;;;9.60;6.53;;;;;;;;;;5118161;28;20326;-72
2023/06/10 08:52:08;;;;;;;6.63;6.07;;;;;;;;;;5118003;28;20202;-72
2023/06/10 08:54:37;;;;;;;8.37;5.67;;;;;;;;;;5117545;28;20232;-71
2023/06/10 08:57:06;;;;;;;7.10;5.93;;;;;;;;;;5117780;28;20245;-71
2023/06/10 08:59:37;;;;;;;8.07;6.60;;;;;;;;;;5116093;28;20198;-72
2023/06/10 09:02:06;;;;;;;9.03;7.53;;;;;;;;;;5113271;28;20233;-73
2023/06/10 09:04:34;;;;;;;7.93;6.20;;;;;;;;;;5116053;28;20247;-71
2023/06/10 09:07:03;;;;;;;7.90;6.23;;;;;;;;;;5112823;28;20221;-73
2023/06/10 09:09:32;;;;;;;8.37;6.10;;;;;;;;;;5112898;28;20569;-71
2023/06/10 09:12:00;;;;;;;8.73;6.43;;;;;;;;;;5107593;28;20538;-73
2023/06/10 09:14:28;;;;;;;5.97;5.40;;;;;;;;;;5102518;28;20229;-72
2023/06/10 09:16:58;;;;;;;6.47;5.63;;;;;;;;;;5115303;28;20227;-71
2023/06/10 09:19:27;;;;;;;6.27;5.13;;;;;;;;;;5111334;28;20288;-71
2023/06/10 09:21:55;;;;;;;4.70;4.23;;;;;;;;;;5115302;28;20219;-70
2023/06/10 09:24:24;;;;;;;7.03;5.20;;;;;;;;;;5115861;28;20239;-70
2023/06/10 09:27:02;;;;;;;5.57;5.03;;;;;;;;;;5118178;28;20224;-70
2023/06/10 09:29:31;;;;;;;5.30;4.53;;;;;;;;;;5118924;28;20196;-69
2023/06/10 09:32:02;;;;;;;6.23;5.63;;;;;;;;;;5121018;28;20196;-70
2023/06/10 09:34:30;;;;;;;6.40;4.97;;;;;;;;;;5122629;27;20628;-70
2023/06/10 09:36:59;;;;;;;6.60;5.27;;;;;;;;;;5123173;27;20212;-70
2023/06/10 09:39:27;;;;;;;6.10;5.13;;;;;;;;;;5119597;27;20221;-71
2023/06/10 09:41:55;;;;;;;6.67;5.60;;;;;;;;;;5110902;28;20327;-70
2023/06/10 09:44:25;;;;;;;6.73;5.00;;;;;;;;;;5121249;28;20638;-69
2023/06/10 09:46:54;;;;;;;4.80;4.20;;;;;;;;;;5120988;28;20228;-69
2023/06/10 09:49:24;;;;;;;7.97;4.80;;;;;;;;;;5120971;28;20215;-71
2023/06/10 09:51:52;;;;;;;5.27;4.77;;;;;;;;;;5120940;28;20202;-71
2023/06/10 09:54:21;;;;;;;5.27;4.77;;;;;;;;;;5120398;28;20655;-68
2023/06/10 09:56:50;;;;;;;4.57;4.17;;;;;;;;;;5121014;28;20224;-69
2023/06/10 09:59:28;;;;;;;6.53;4.20;;;;;;;;;;5120880;28;20239;-66
2023/06/10 10:01:57;;;;;;;4.60;3.90;;;;;;;;;;5120543;28;20225;-69
2023/06/10 10:04:26;;;;;;;5.10;4.00;;;;;;;;;;5120734;28;20208;-66
2023/06/10 10:06:55;;;;;;;5.40;3.83;;;;;;;;;;5120670;28;20229;-66
2023/06/10 10:09:23;;;;;;;4.57;4.10;;;;;;;;;;5120181;28;20288;-67
2023/06/10 10:11:52;;;;;;;5.47;3.90;;;;;;;;;;5120543;28;20648;-66
2023/06/10 10:14:21;;;;;;;3.87;3.57;;;;;;;;;;5120362;28;20211;-65
2023/06/10 10:16:50;;;;;;;4.47;4.13;;;;;;;;;;5120337;28;20222;-66
2023/06/10 10:19:21;;;;;;;6.27;4.40;;;;;;;;;;5120552;27;20288;-64
2023/06/10 10:21:54;;;;;;;4.53;3.77;;;;;;;;;;5120414;27;20226;-64
2023/06/10 10:24:24;;;;;;;5.03;4.20;;;;;;;;;;5119976;28;20208;-65
2023/06/10 10:26:55;;;;;;;4.43;3.90;;;;;;;;;;5119956;28;20230;-66
2023/06/10 10:29:26;;;;;;;4.20;3.80;;;;;;;;;;5120188;28;20294;-65
2023/06/10 10:31:56;;;;;;;4.50;4.10;;;;;;;;;;5120428;28;20233;-65
2023/06/10 10:34:26;;;;;;;4.50;3.67;;;;;;;;;;5120075;28;20575;-66
2023/06/10 10:36:56;;;;;;;4.13;3.73;;;;;;;;;;5119980;28;20228;-66
2023/06/10 10:39:24;;;;;;;4.83;4.43;;;;;;;;;;5119470;28;20306;-66
2023/06/10 10:41:53;;;;;;;3.97;3.00;;;;;;;;;;5118697;28;20603;-67
2023/06/10 10:44:21;;;;;;;3.73;3.07;;;;;;;;;;5120145;28;20221;-65
2023/06/10 10:46:50;;;;;;;5.73;3.63;;;;;;;;;;5120194;28;20230;-67
2023/06/10 10:49:19;;;;;;;4.53;4.13;;;;;;;;;;5116630;28;20214;-68
2023/06/10 10:51:58;;;;;;;4.33;3.57;;;;;;;;;;5104213;27;20301;-68
2023/06/10 10:54:31;;;;;;;4.33;3.60;;;;;;;;;;5118181;28;20289;-67
2023/06/10 10:57:15;;;;;;;3.90;3.60;;;;;;;;;;5129229;27;20276;-64
2023/06/10 10:59:45;;;;;;;3.80;3.30;;;;;;;;;;5139893;27;20576;-67
2023/06/10 11:02:16;;;;;;;4.40;3.47;;;;;;;;;;5126709;27;20318;-64
2023/06/10 11:04:48;;;;;;;4.67;4.17;;;;;;;;;;5119673;28;20219;-63
2023/06/10 11:07:21;;;;;;;4.57;3.90;;;;;;;;;;5107132;28;20220;-66
2023/06/10 11:10:01;;;;;;;6.80;4.07;;;;;;;;;;5119449;28;20205;-66
2023/06/10 11:12:47;;;;;;;7.83;4.23;;;;;;;;;;5119416;28;20217;-65
2023/06/10 11:15:19;;;;;;;3.90;3.50;;;;;;;;;;5109564;28;20225;-64
2023/06/10 11:18:05;;;;;;;5.67;3.50;;;;;;;;;;5116127;28;20207;-64
2023/06/10 11:20:52;;;;;;;4.27;3.87;;;;;;;;;;5102654;27;20221;-64
2023/06/10 11:23:39;;;;;;;4.53;3.90;;;;;;;;;;5107599;28;20221;-65
2023/06/10 11:26:14;;;;;;;6.93;3.87;;;;;;;;;;5125029;27;20251;-66
2023/06/10 11:28:43;;;;;;;4.20;3.87;;;;;;;;;;5118687;27;20555;-66
2023/06/10 11:31:20;;;;;;;5.03;3.70;;;;;;;;;;5121175;27;20659;-65
2023/06/10 11:33:49;;;;;;;6.20;4.13;;;;;;;;;;5117671;27;20653;-65
2023/06/10 11:36:18;;;;;;;4.87;3.77;;;;;;;;;;5118854;27;20216;-65
2023/06/10 11:38:47;;;;;;;4.40;3.97;;;;;;;;;;5121039;27;20202;-66
2023/06/10 11:41:34;;;;;;;5.43;4.03;;;;;;;;;;5119013;27;20658;-65
2023/06/10 11:44:03;;;;;;;4.80;3.70;;;;;;;;;;5129672;27;20231;-64
2023/06/10 11:46:31;;;;;;;4.27;3.63;;;;;;;;;;5125853;27;20240;-65
2023/06/10 11:49:02;;;;;;;3.70;3.40;;;;;;;;;;5129701;27;20201;-65
2023/06/10 11:51:31;;;;;;;5.10;3.50;;;;;;;;;;5119209;27;20643;-66
2023/06/10 11:54:01;;;;;;;4.67;3.30;;;;;;;;;;5129051;27;20375;-66
2023/06/10 11:56:30;;;;;;;5.33;4.10;;;;;;;;;;5125879;27;20231;-68
2023/06/10 11:58:58;;;;;;;9.50;4.07;;;;;;;;;;5127576;27;20199;-67
2023/06/10 12:01:27;;;;;;;8.50;5.27;;;;;;;;;;5124836;27;20207;-74
2023/06/10 12:04:00;;;;;;;8.70;4.27;;;;;;;;;;5128738;27;20228;-74
2023/06/10 12:06:28;;;;;;;8.37;4.83;;;;;;;;;;5123509;27;20244;-74
2023/06/10 12:08:57;;;;;;;8.60;4.37;;;;;;;;;;5125621;27;20563;-74
2023/06/10 12:11:43;;;;;;;6.33;4.00;;;;;;;;;;5124497;27;20200;-75
2023/06/10 12:14:11;;;;;;;6.93;4.27;;;;;;;;;;5116141;28;20194;-74
2023/06/10 12:16:39;;;;;;;4.37;3.97;;;;;;;;;;5116934;28;20224;-75
2023/06/10 12:19:07;;;;;;;6.10;4.03;;;;;;;;;;5137091;27;20209;-74
2023/06/10 12:21:38;;;;;;;4.90;3.93;;;;;;;;;;5138893;27;20609;-74
2023/06/10 12:24:07;;;;;;;5.40;3.43;;;;;;;;;;5138393;27;20707;-74
2023/06/10 12:26:40;;;;;;;4.70;3.47;;;;;;;;;;5126709;27;20230;-74
2023/06/10 12:29:20;;;;;;;3.87;2.90;;;;;;;;;;5118288;28;20213;-74
2023/06/10 12:31:58;;;;;;;3.27;2.90;;;;;;;;;;5117868;28;20569;-75
2023/06/10 12:34:34;;;;;;;2.67;2.47;;;;;;;;;;5118255;28;20284;-75
2023/06/10 12:37:03;;;;;;;4.90;2.70;;;;;;;;;;5117827;28;20248;-75
2023/06/10 12:39:32;;;;;;;3.00;2.70;;;;;;;;;;5115728;28;20215;-74
2023/06/10 12:42:01;;;;;;;2.90;2.67;;;;;;;;;;5116730;28;20693;-75
2023/06/10 12:44:31;;;;;;;3.33;3.00;;;;;;;;;;5118525;28;20215;-74
2023/06/10 12:46:59;;;;;;;2.53;2.33;;;;;;;;;;5118267;28;20314;-74
2023/06/10 12:49:27;;;;;;;3.50;2.07;;;;;;;;;;5118285;28;20573;-75
2023/06/10 12:51:56;;;;;;;2.73;2.00;;;;;;;;;;5118480;28;20203;-74
2023/06/10 12:54:24;;;;;;;2.30;2.20;;;;;;;;;;5117751;28;20245;-74
2023/06/10 12:56:52;;;;;;;2.40;2.20;;;;;;;;;;5118255;28;20230;-75
2023/06/10 12:59:21;;;;;;;2.17;1.90;;;;;;;;;;5118124;28;20211;-74
2023/06/10 13:01:53;;;;;;;3.07;2.03;;;;;;;;;;5117822;28;20198;-74
2023/06/10 13:04:21;;;;;;;2.40;2.20;;;;;;;;;;5118965;28;20227;-75
2023/06/10 13:06:50;;;;;;;3.43;2.37;;;;;;;;;;5121934;28;20268;-67
2023/06/10 13:09:18;;;;;;;3.57;2.70;;;;;;;;;;5121856;27;20204;-70
2023/06/10 13:11:46;;;;;;;3.90;2.60;;;;;;;;;;5122321;28;20209;-72
2023/06/10 13:14:14;;;;;;;2.90;2.40;;;;;;;;;;5122306;27;20210;-67
2023/06/10 13:16:44;;;;;;;3.93;2.07;;;;;;;;;;5121912;28;20306;-67
2023/06/10 13:19:14;;;;;;;2.40;2.20;;;;;;;;;;5123266;27;20255;-67
2023/06/10 13:21:42;;;;;;;3.10;2.10;;;;;;;;;;5123834;27;20202;-67
2023/06/10 13:24:11;;;;;;;2.67;2.47;;;;;;;;;;5124057;27;20222;-67
2023/06/10 13:26:42;;;;;;;2.77;2.30;;;;;;;;;;5119579;28;20220;-67
2023/06/10 13:29:13;;;;;;;2.40;1.70;;;;;;;;;;5116931;27;20292;-68
2023/06/10 13:31:42;;;;;;;1.63;1.53;;;;;;;;;;5121509;27;20213;-69
2023/06/10 13:34:10;;;;;;;2.60;1.73;;;;;;;;;;5120952;28;20615;-68
2023/06/10 13:36:40;;;;;;;3.00;1.70;;;;;;;;;;5118214;28;20312;-68
2023/06/10 13:39:08;;;;;;;4.37;1.70;;;;;;;;;;5121617;27;20283;-67
2023/06/10 13:41:36;;;;;;;4.50;1.50;;;;;;;;;;5120801;27;20194;-67
2023/06/10 13:44:04;;;;;;;1.63;1.53;;;;;;;;;;5122312;27;20219;-66
2023/06/10 13:46:33;;;;;;;2.50;1.90;;;;;;;;;;5119179;27;20286;-67
2023/06/10 13:49:01;;;;;;;1.90;1.80;;;;;;;;;;5120653;28;20539;-67
2023/06/10 13:51:30;;;;;;;3.63;1.40;;;;;;;;;;5122283;27;20213;-66
2023/06/10 13:54:00;;;;;;;1.73;1.60;;;;;;;;;;5117590;28;20234;-68
2023/06/10 13:56:28;;;;;;;1.43;1.33;;;;;;;;;;5122962;27;20256;-68
2023/06/10 13:58:56;;;;;;;1.67;1.57;;;;;;;;;;5121471;27;20236;-66
2023/06/10 14:01:25;;;;;;;1.60;1.50;;;;;;;;;;5123723;27;20659;-66
2023/06/10 14:03:53;;;;;;;1.53;1.40;;;;;;;;;;5141597;27;20308;-66
2023/06/10 14:06:22;;;;;;;1.80;1.50;;;;;;;;;;5141607;27;20308;-66
2023/06/10 14:08:50;;;;;;;2.37;1.30;;;;;;;;;;5123100;27;20210;-66
2023/06/10 14:11:20;;;;;;;2.00;1.33;;;;;;;;;;5120980;28;20217;-65
2023/06/10 14:13:48;;;;;;;1.43;1.23;;;;;;;;;;5120994;28;20205;-65
2023/06/10 14:16:16;;;;;;;3.60;1.60;;;;;;;;;;5120553;28;20326;-65
2023/06/10 14:18:45;;;;;;;2.33;1.27;;;;;;;;;;5120857;28;20251;-66
2023/06/10 14:21:13;;;;;;;2.77;1.70;;;;;;;;;;5120565;28;20204;-66
2023/06/10 14:23:41;;;;;;;2.03;1.90;;;;;;;;;;5120141;28;20616;-64
2023/06/10 14:26:09;;;;;;;3.27;1.60;;;;;;;;;;5120340;28;20280;-65
2023/06/10 14:28:39;;;;;;;1.40;1.30;;;;;;;;;;5109657;28;20209;-64
2023/06/10 14:31:07;;;;;;;1.80;1.70;;;;;;;;;;5107240;28;20209;-65
2023/06/10 14:33:35;;;;;;;1.60;1.50;;;;;;;;;;5120288;28;20207;-65
2023/06/10 14:36:04;;;;;;;1.83;1.60;;;;;;;;;;5120130;27;20219;-64
2023/06/10 14:38:32;;;;;;;1.50;1.40;;;;;;;;;;5121757;27;20561;-64
2023/06/10 14:41:00;;;;;;;1.60;1.50;;;;;;;;;;5124236;27;20204;-65
2023/06/10 14:43:29;;;;;;;1.60;1.50;;;;;;;;;;5129365;27;20218;-65
2023/06/10 14:45:58;;;;;;;2.07;1.87;;;;;;;;;;5130285;27;20218;-64
2023/06/10 14:48:27;;;;;;;2.87;1.60;;;;;;;;;;5130882;27;20270;-64
2023/06/10 14:50:55;;;;;;;2.10;1.90;;;;;;;;;;5129825;27;20200;-64
2023/06/10 14:53:23;;;;;;;1.93;1.83;;;;;;;;;;5128651;27;20592;-65